createdAt,value
2022-09-22T00:01:37.214Z,1.25
2022-09-22T00:04:08.224Z,1.40
2022-09-22T00:06:39.226Z,1.55
2022-09-22T00:09:10.109Z,1.23
2022-09-22T00:11:40.632Z,1.40
2022-09-22T00:14:11.009Z,1.42
2022-09-22T00:16:42.818Z,1.10
2022-09-22T00:19:12.927Z,1.60
2022-09-22T00:21:40.955Z,1.95
2022-09-22T00:24:09.297Z,1.30
2022-09-22T00:26:39.031Z,1.70
2022-09-22T00:29:10.219Z,1.70
2022-09-22T00:31:40.952Z,1.50
2022-09-22T00:34:10.289Z,1.25
2022-09-22T00:36:38.457Z,1.42
2022-09-22T00:39:06.727Z,1.45
2022-09-22T00:41:37.304Z,1.50
2022-09-22T00:44:37.689Z,1.35
2022-09-22T00:47:16.399Z,1.35
2022-09-22T00:49:51.156Z,1.10
2022-09-22T00:52:23.909Z,1.70
2022-09-22T00:54:56.788Z,1.50
2022-09-22T00:57:28.226Z,1.67
2022-09-22T00:59:57.117Z,2.08
2022-09-22T01:02:26.806Z,2.10
2022-09-22T01:04:55.988Z,1.92
2022-09-22T01:07:27.464Z,1.73
2022-09-22T01:09:55.612Z,1.90
2022-09-22T01:12:25.878Z,1.90
2022-09-22T01:15:08.539Z,1.58
2022-09-22T01:17:48.491Z,1.70
2022-09-22T01:20:55.829Z,1.60
2022-09-22T01:24:11.868Z,1.60
2022-09-22T01:27:21.642Z,1.90
2022-09-22T01:30:11.073Z,2.13
2022-09-22T01:32:48.054Z,2.20
2022-09-22T01:35:23.265Z,1.65
2022-09-22T01:37:59.901Z,2.15
2022-09-22T01:40:34.423Z,1.80
2022-09-22T01:43:12.645Z,1.90
2022-09-22T01:45:44.508Z,1.70
2022-09-22T01:48:16.929Z,1.83
2022-09-22T01:50:50.246Z,2.67
2022-09-22T01:53:24.145Z,2.15
2022-09-22T01:55:55.428Z,2.28
2022-09-22T02:01:26.160Z,2.17
2022-09-22T02:03:58.933Z,1.92
2022-09-22T02:06:33.290Z,2.03
2022-09-22T02:09:06.958Z,1.95
2022-09-22T02:11:35.384Z,2.08
2022-09-22T02:14:05.083Z,2.40
2022-09-22T02:16:35.647Z,2.22
2022-09-22T02:19:13.283Z,2.97
2022-09-22T02:21:45.204Z,2.80
2022-09-22T02:24:28.857Z,2.53
2022-09-22T02:26:58.561Z,2.90
2022-09-22T02:29:29.875Z,2.67
2022-09-22T02:31:59.931Z,2.40
2022-09-22T02:34:28.560Z,2.58
2022-09-22T02:37:02.265Z,2.30
2022-09-22T02:39:37.766Z,2.75
2022-09-22T02:42:17.063Z,2.67
2022-09-22T02:44:49.450Z,2.75
2022-09-22T02:47:23.981Z,3.22
2022-09-22T02:49:54.396Z,3.47
2022-09-22T02:52:24.904Z,2.75
2022-09-22T02:54:54.577Z,3.45
2022-09-22T02:57:22.482Z,3.08
2022-09-22T02:59:50.918Z,3.17
2022-09-22T03:02:20.520Z,3.83
2022-09-22T03:04:48.351Z,3.85
2022-09-22T03:07:16.710Z,4.20
2022-09-22T03:09:44.900Z,4.10
2022-09-22T03:12:12.719Z,3.63
2022-09-22T03:14:40.959Z,4.32
2022-09-22T03:17:09.094Z,4.05
2022-09-22T03:19:38.182Z,4.22
2022-09-22T03:22:06.748Z,4.82
2022-09-22T03:24:35.118Z,4.80
2022-09-22T03:27:02.862Z,4.45
2022-09-22T03:29:31.079Z,5.03
2022-09-22T03:31:59.389Z,4.97
2022-09-22T03:34:27.222Z,5.35
2022-09-22T03:36:56.901Z,5.40
2022-09-22T03:39:25.218Z,6.43
2022-09-22T03:41:52.969Z,5.82
2022-09-22T03:44:21.173Z,6.47
2022-09-22T03:46:49.585Z,6.13
2022-09-22T03:49:17.317Z,6.00
2022-09-22T03:51:45.774Z,5.93
2022-09-22T03:54:14.964Z,6.43
2022-09-22T03:56:42.734Z,6.97
2022-09-22T03:59:11.929Z,6.72
2022-09-22T04:01:40.237Z,6.78
2022-09-22T04:04:08.365Z,6.85
2022-09-22T04:06:39.155Z,6.72
2022-09-22T04:09:07.814Z,7.70
2022-09-22T04:11:37.541Z,7.82
2022-09-22T04:14:05.831Z,6.93
2022-09-22T04:16:33.670Z,6.70
2022-09-22T04:19:05.408Z,7.80
2022-09-22T04:21:33.850Z,7.82
2022-09-22T04:24:01.932Z,6.88
2022-09-22T04:26:30.565Z,7.20
2022-09-22T04:29:00.387Z,6.80
2022-09-22T04:31:28.228Z,8.13
2022-09-22T04:33:56.551Z,7.97
2022-09-22T04:36:24.864Z,7.63
2022-09-22T04:38:52.670Z,7.72
2022-09-22T04:41:21.069Z,7.43
2022-09-22T04:43:49.224Z,8.13
2022-09-22T04:46:18.599Z,7.45
2022-09-22T04:48:46.817Z,7.82
2022-09-22T04:51:15.304Z,7.85
2022-09-22T04:53:43.491Z,8.20
2022-09-22T04:56:11.857Z,8.25
2022-09-22T04:58:40.180Z,8.02
2022-09-22T05:01:08.330Z,8.05
2022-09-22T05:03:39.503Z,8.18
2022-09-22T05:06:08.698Z,7.90
2022-09-22T05:08:36.509Z,8.15
2022-09-22T05:11:07.222Z,7.00
2022-09-22T05:13:35.793Z,7.28
2022-09-22T05:16:05.534Z,8.27
2022-09-22T05:18:33.883Z,8.00
2022-09-22T05:21:03.893Z,8.13
2022-09-22T05:23:32.244Z,9.15
2022-09-22T05:26:00.486Z,8.68
2022-09-22T05:28:28.786Z,8.45
2022-09-22T05:30:56.557Z,7.90
2022-09-22T05:33:24.709Z,8.57
2022-09-22T05:35:52.844Z,8.90
2022-09-22T05:38:22.036Z,9.00
2022-09-22T05:40:50.280Z,7.78
2022-09-22T05:43:18.469Z,9.57
2022-09-22T05:45:46.247Z,8.82
2022-09-22T05:48:14.652Z,9.65
2022-09-22T05:50:42.687Z,9.48
2022-09-22T05:53:11.289Z,8.63
2022-09-22T05:55:42.021Z,9.25
2022-09-22T05:58:12.228Z,9.57
2022-09-22T06:00:41.540Z,8.07
2022-09-22T06:03:10.313Z,10.20
2022-09-22T06:05:39.487Z,9.00
2022-09-22T06:08:08.431Z,8.88
2022-09-22T06:10:38.736Z,9.40
2022-09-22T06:13:10.825Z,8.45
2022-09-22T06:15:39.792Z,8.88
2022-09-22T06:18:14.932Z,9.40
2022-09-22T06:20:44.288Z,9.02
2022-09-22T06:23:15.922Z,10.30
2022-09-22T06:25:44.539Z,9.68
2022-09-22T06:28:15.871Z,8.77
2022-09-22T06:30:43.991Z,8.85
2022-09-22T06:33:12.606Z,8.13
2022-09-22T06:35:43.369Z,8.45
2022-09-22T06:38:15.172Z,9.75
2022-09-22T06:40:43.827Z,13.02
2022-09-22T06:43:20.735Z,10.63
2022-09-22T06:45:49.097Z,11.43
2022-09-22T06:48:16.907Z,11.13
2022-09-22T06:50:49.744Z,10.88
2022-09-22T06:53:19.041Z,9.70
2022-09-22T06:55:47.146Z,10.75
2022-09-22T06:58:17.470Z,10.95
2022-09-22T07:00:45.383Z,10.75
2022-09-22T07:03:20.029Z,10.27
2022-09-22T07:05:55.626Z,10.90
2022-09-22T07:08:24.568Z,9.35
2022-09-22T07:10:56.768Z,11.27
2022-09-22T07:13:30.044Z,10.75
2022-09-22T07:16:01.305Z,9.57
2022-09-22T07:18:29.336Z,9.35
2022-09-22T07:21:03.635Z,8.43
2022-09-22T07:23:31.451Z,7.97
2022-09-22T07:26:00.894Z,7.55
2022-09-22T07:28:30.458Z,7.00
2022-09-22T07:31:06.209Z,6.72
2022-09-22T07:33:34.749Z,6.38
2022-09-22T07:36:05.669Z,6.15
2022-09-22T07:38:33.990Z,5.88
2022-09-22T07:41:02.622Z,5.18
2022-09-22T07:43:35.157Z,3.60
2022-09-22T07:46:03.851Z,3.58
2022-09-22T07:48:37.682Z,3.20
2022-09-22T07:51:06.843Z,3.70
2022-09-22T07:53:34.740Z,3.00
2022-09-22T07:56:07.469Z,3.72
2022-09-22T07:58:36.613Z,2.90
2022-09-22T08:01:09.341Z,2.90
2022-09-22T08:03:38.103Z,4.05
2022-09-22T08:06:10.512Z,3.33
2022-09-22T08:08:42.670Z,3.28
2022-09-22T08:11:13.820Z,2.72
2022-09-22T08:13:44.317Z,2.60
2022-09-22T08:16:12.138Z,2.55
2022-09-22T08:18:41.023Z,2.58
2022-09-22T08:21:08.930Z,2.58
2022-09-22T08:23:37.944Z,2.97
2022-09-22T08:26:09.357Z,2.42
2022-09-22T08:28:37.127Z,2.30
2022-09-22T08:31:13.436Z,2.17
2022-09-22T08:33:42.344Z,2.50
2022-09-22T08:36:10.505Z,3.13
2022-09-22T08:38:39.134Z,2.72
2022-09-22T08:41:17.509Z,7.45
2022-09-22T08:43:50.485Z,6.55
2022-09-22T08:46:20.051Z,5.28
2022-09-22T08:49:07.647Z,2.58
2022-09-22T08:51:55.520Z,4.38
2022-09-22T08:54:29.455Z,3.03
2022-09-22T08:57:21.687Z,2.17
2022-09-22T08:59:55.700Z,2.20
2022-09-22T09:02:35.409Z,1.80
2022-09-22T09:05:46.538Z,2.03
2022-09-22T09:08:50.919Z,1.50
2022-09-22T09:11:32.121Z,1.70
2022-09-22T09:14:16.947Z,1.75
2022-09-22T09:16:48.937Z,1.27
2022-09-22T09:19:21.641Z,2.90
2022-09-22T09:21:52.667Z,1.90
2022-09-22T09:27:21.274Z,2.03
2022-09-22T09:29:59.935Z,2.00
2022-09-22T09:32:34.525Z,2.10
2022-09-22T09:37:33.413Z,1.90
2022-09-22T09:40:04.890Z,1.50
2022-09-22T09:42:36.800Z,1.85
2022-09-22T09:45:07.728Z,1.63
2022-09-22T09:48:01.609Z,1.80
2022-09-22T09:50:32.662Z,1.80
2022-09-22T09:53:00.994Z,1.60
2022-09-22T09:55:29.041Z,1.52
2022-09-22T09:58:11.178Z,1.38
2022-09-22T10:00:55.967Z,1.35
2022-09-22T10:03:30.532Z,1.38
2022-09-22T10:06:03.365Z,0.90
2022-09-22T10:08:36.474Z,1.00
2022-09-22T10:11:05.561Z,1.02
2022-09-22T10:13:36.121Z,1.00
2022-09-22T10:16:20.886Z,1.05
2022-09-22T10:18:49.898Z,0.90
2022-09-22T10:21:21.121Z,0.90
2022-09-22T10:23:50.200Z,1.00
2022-09-22T10:26:21.857Z,1.00
2022-09-22T10:29:14.194Z,1.38
2022-09-22T10:31:43.092Z,1.00
2022-09-22T10:34:31.270Z,0.90
2022-09-22T10:37:01.971Z,0.95
2022-09-22T10:39:40.121Z,1.10
2022-09-22T10:42:20.034Z,1.10
2022-09-22T10:44:49.053Z,0.88
2022-09-22T10:47:31.589Z,0.70
2022-09-22T10:50:28.952Z,0.80
2022-09-22T10:53:08.136Z,1.00
2022-09-22T10:55:42.710Z,0.80
2022-09-22T10:58:27.534Z,0.97
2022-09-22T11:01:11.463Z,0.70
2022-09-22T11:04:27.172Z,0.95
2022-09-22T11:07:37.867Z,0.57
2022-09-22T11:10:38.155Z,0.80
2022-09-22T11:13:21.045Z,0.77
2022-09-22T11:16:13.689Z,0.73
2022-09-22T11:19:01.220Z,0.80
2022-09-22T11:21:44.971Z,0.70
2022-09-22T11:24:25.396Z,0.90
2022-09-22T11:26:57.809Z,0.70
2022-09-22T11:29:57.424Z,1.02
2022-09-22T11:32:47.996Z,0.90
2022-09-22T11:35:48.765Z,0.80
2022-09-22T11:38:29.204Z,0.70
2022-09-22T11:41:18.916Z,0.65
2022-09-22T11:44:15.321Z,0.90
2022-09-22T11:47:01.028Z,1.05
2022-09-22T11:49:45.887Z,0.80
2022-09-22T11:52:27.793Z,0.67
2022-09-22T11:55:19.193Z,0.88
2022-09-22T11:57:50.734Z,0.70
2022-09-22T12:00:22.515Z,0.60
2022-09-22T12:03:02.072Z,0.90
2022-09-22T12:05:35.749Z,0.70
2022-09-22T12:08:07.405Z,0.60
2022-09-22T12:10:38.510Z,0.70
2022-09-22T12:13:12.001Z,0.70
2022-09-22T12:15:49.048Z,0.60
2022-09-22T12:18:24.211Z,0.60
2022-09-22T12:21:00.906Z,0.60
2022-09-22T12:23:40.911Z,0.57
2022-09-22T12:26:12.581Z,0.77
2022-09-22T12:28:43.185Z,0.57
2022-09-22T12:31:15.753Z,0.70
2022-09-22T12:33:49.871Z,0.93
2022-09-22T12:36:20.458Z,0.80
2022-09-22T12:38:48.337Z,0.90
2022-09-22T12:41:21.757Z,0.80
2022-09-22T12:43:49.529Z,0.80
2022-09-22T12:46:28.358Z,0.85
2022-09-22T12:48:56.244Z,0.52
2022-09-22T12:51:35.025Z,0.65
2022-09-22T12:54:47.415Z,0.82
2022-09-22T12:57:48.954Z,0.60
2022-09-22T13:00:32.277Z,0.80
2022-09-22T13:03:49.741Z,0.80
2022-09-22T13:06:50.790Z,0.70
2022-09-22T13:09:22.660Z,0.65
2022-09-22T13:12:28.510Z,0.57
2022-09-22T13:15:23.779Z,0.70
2022-09-22T13:17:52.179Z,0.77
2022-09-22T13:20:31.051Z,0.75
2022-09-22T13:23:05.801Z,0.77
2022-09-22T13:25:34.346Z,0.75
2022-09-22T13:28:11.608Z,0.70
2022-09-22T13:30:41.952Z,0.90
2022-09-22T13:33:20.121Z,0.75
2022-09-22T13:35:58.333Z,1.30
2022-09-22T13:38:26.469Z,0.70
2022-09-22T13:40:55.187Z,0.80
2022-09-22T13:43:28.858Z,0.63
2022-09-22T13:45:59.586Z,0.98
2022-09-22T13:48:31.226Z,0.70
2022-09-22T13:51:04.452Z,0.88
2022-09-22T13:53:33.233Z,0.70
2022-09-22T13:56:01.131Z,1.00
2022-09-22T13:58:36.925Z,0.90
2022-09-22T14:01:14.176Z,0.65
2022-09-22T14:03:43.117Z,0.60
2022-09-22T14:06:16.324Z,0.60
2022-09-22T14:08:46.000Z,0.57
2022-09-22T14:11:16.217Z,0.40
2022-09-22T14:13:57.853Z,1.05
2022-09-22T14:16:29.573Z,0.80
2022-09-22T14:19:03.278Z,0.70
2022-09-22T14:21:33.380Z,0.82
2022-09-22T14:24:02.134Z,0.85
2022-09-22T14:26:35.996Z,0.70
2022-09-22T14:29:18.672Z,0.90
2022-09-22T14:31:50.708Z,0.90
2022-09-22T14:34:24.401Z,1.08
2022-09-22T14:36:55.213Z,0.60
2022-09-22T14:39:31.425Z,0.98
2022-09-22T14:42:07.329Z,0.90
2022-09-22T14:44:41.160Z,0.70
2022-09-22T14:47:11.460Z,1.00
2022-09-22T14:49:42.054Z,0.70
2022-09-22T14:52:22.493Z,0.70
2022-09-22T14:54:51.111Z,0.70
2022-09-22T14:57:19.097Z,0.77
2022-09-22T15:00:11.377Z,1.02
2022-09-22T15:02:41.691Z,0.80
2022-09-22T15:05:11.984Z,0.60
2022-09-22T15:07:49.171Z,0.70
2022-09-22T15:10:27.057Z,0.75
2022-09-22T15:12:56.576Z,0.93
2022-09-22T15:15:26.662Z,0.68
2022-09-22T15:18:16.318Z,0.80
2022-09-22T15:20:47.704Z,0.77
2022-09-22T15:23:23.075Z,0.70
2022-09-22T15:28:23.008Z,0.60
2022-09-22T15:30:52.900Z,0.63
2022-09-22T15:33:21.914Z,0.50
2022-09-22T15:35:53.940Z,0.80
2022-09-22T15:38:26.844Z,0.50
2022-09-22T15:40:55.709Z,0.50
2022-09-22T15:43:29.220Z,0.70
2022-09-22T15:46:01.393Z,0.90
2022-09-22T15:48:32.272Z,0.60
2022-09-22T15:51:04.711Z,0.60
2022-09-22T15:53:35.399Z,0.70
2022-09-22T15:56:06.515Z,0.82
2022-09-22T15:58:36.436Z,0.70
2022-09-22T16:01:05.582Z,0.63
2022-09-22T16:03:37.946Z,0.55
2022-09-22T16:06:13.063Z,0.50
2022-09-22T16:08:46.598Z,0.77
2022-09-22T16:11:16.754Z,0.60
2022-09-22T16:13:44.549Z,0.43
2022-09-22T16:16:12.705Z,0.73
2022-09-22T16:18:42.229Z,0.57
2022-09-22T16:21:20.723Z,0.60
2022-09-22T16:23:50.448Z,0.95
2022-09-22T16:26:18.149Z,0.90
2022-09-22T16:28:45.843Z,0.60
2022-09-22T16:31:14.740Z,0.60
2022-09-22T16:33:43.881Z,0.80
2022-09-22T16:36:12.232Z,0.77
2022-09-22T16:38:39.949Z,0.80
2022-09-22T16:41:20.099Z,0.60
2022-09-22T16:43:47.956Z,0.57
2022-09-22T16:46:28.305Z,0.80
2022-09-22T16:48:58.879Z,0.70
2022-09-22T16:51:27.375Z,0.85
2022-09-22T16:53:55.167Z,0.80
2022-09-22T16:56:26.311Z,0.70
2022-09-22T16:58:55.463Z,0.68
2022-09-22T17:01:23.784Z,0.60
2022-09-22T17:03:53.371Z,0.73
2022-09-22T17:06:25.290Z,0.88
2022-09-22T17:08:54.228Z,0.55
2022-09-22T17:11:29.446Z,1.00
2022-09-22T17:14:00.028Z,0.90
2022-09-22T17:16:29.933Z,0.95
2022-09-22T17:18:59.620Z,0.70
2022-09-22T17:21:32.288Z,0.80
2022-09-22T17:24:01.865Z,0.60
2022-09-22T17:26:33.502Z,1.10
2022-09-22T17:29:01.780Z,0.68
2022-09-22T17:31:31.204Z,0.73
2022-09-22T17:34:00.099Z,0.55
2022-09-22T17:36:29.473Z,0.90
2022-09-22T17:38:59.115Z,1.00
2022-09-22T17:41:28.833Z,0.90
2022-09-22T17:44:00.966Z,0.82
2022-09-22T17:46:31.406Z,1.10
2022-09-22T17:49:16.997Z,1.15
2022-09-22T17:52:04.285Z,1.40
2022-09-22T17:54:51.323Z,1.42
2022-09-22T17:57:22.122Z,1.40
2022-09-22T17:59:51.926Z,0.88
2022-09-22T18:02:21.264Z,1.20
2022-09-22T18:04:49.712Z,1.10
2022-09-22T18:07:19.543Z,0.80
2022-09-22T18:09:50.006Z,0.90
2022-09-22T18:12:21.444Z,1.58
2022-09-22T18:14:52.602Z,1.38
2022-09-22T18:17:22.017Z,0.95
2022-09-22T18:19:49.810Z,1.55
2022-09-22T18:22:21.486Z,0.88
2022-09-22T18:24:50.579Z,1.02
2022-09-22T18:27:20.666Z,1.00
2022-09-22T18:29:50.354Z,1.00
2022-09-22T18:32:20.226Z,0.90
2022-09-22T18:34:53.471Z,1.00
2022-09-22T18:37:21.685Z,0.90
2022-09-22T18:39:50.498Z,1.02
2022-09-22T18:42:19.543Z,0.98
2022-09-22T18:44:47.967Z,0.90
2022-09-22T18:47:18.858Z,1.38
2022-09-22T18:49:51.241Z,1.42
2022-09-22T18:52:23.453Z,1.48
2022-09-22T18:54:53.110Z,1.27
2022-09-22T18:57:21.730Z,1.50
2022-09-22T18:59:51.514Z,1.50
2022-09-22T19:02:22.625Z,1.27
2022-09-22T19:04:52.755Z,1.83
2022-09-22T19:07:42.503Z,0.98
2022-09-22T19:10:12.777Z,1.33
2022-09-22T19:12:41.008Z,1.58
2022-09-22T19:15:14.059Z,1.13
2022-09-22T19:17:44.431Z,1.13
2022-09-22T19:20:17.724Z,1.10
2022-09-22T19:22:47.016Z,1.60
2022-09-22T19:25:15.427Z,0.90
2022-09-22T19:27:44.014Z,1.13
2022-09-22T19:30:13.042Z,1.00
2022-09-22T19:32:41.690Z,1.30
2022-09-22T19:35:11.023Z,1.17
2022-09-22T19:37:41.255Z,1.40
2022-09-22T19:40:13.098Z,1.25
2022-09-22T19:42:41.051Z,1.40
2022-09-22T19:45:09.510Z,1.40
2022-09-22T19:47:38.589Z,1.00
2022-09-22T19:50:08.601Z,1.23
2022-09-22T19:52:36.789Z,1.35
2022-09-22T19:55:07.065Z,1.58
2022-09-22T19:57:41.399Z,1.35
2022-09-22T20:00:10.980Z,1.30
2022-09-22T20:02:38.796Z,1.50
2022-09-22T20:05:18.385Z,1.55
2022-09-22T20:07:46.124Z,1.77
2022-09-22T20:10:17.127Z,1.10
2022-09-22T20:12:45.374Z,1.30
2022-09-22T20:15:15.808Z,1.40
2022-09-22T20:17:46.261Z,1.55
2022-09-22T20:20:15.499Z,1.45
2022-09-22T20:22:43.608Z,2.78
2022-09-22T20:25:23.005Z,2.47
2022-09-22T20:27:50.805Z,2.20
2022-09-22T20:30:19.287Z,1.75
2022-09-22T20:32:47.989Z,1.90
2022-09-22T20:35:18.991Z,1.75
2022-09-22T20:37:47.257Z,1.67
2022-09-22T20:40:20.451Z,1.70
2022-09-22T20:42:49.817Z,1.73
2022-09-22T20:45:18.659Z,1.95
2022-09-22T20:47:46.416Z,1.83
2022-09-22T20:50:14.788Z,2.40
2022-09-22T20:52:43.513Z,1.75
2022-09-22T20:55:12.131Z,1.48
2022-09-22T20:57:41.271Z,1.48
2022-09-22T21:00:10.356Z,1.42
2022-09-22T21:02:39.349Z,1.90
2022-09-22T21:05:07.504Z,1.98
2022-09-22T21:07:35.246Z,1.40
2022-09-22T21:10:20.780Z,1.65
2022-09-22T21:12:50.721Z,1.17
2022-09-22T21:15:20.304Z,1.58
2022-09-22T21:17:48.592Z,1.35
2022-09-22T21:20:16.492Z,1.63
2022-09-22T21:22:44.930Z,1.65
2022-09-22T21:25:12.914Z,1.63
2022-09-22T21:27:40.864Z,1.27
2022-09-22T21:30:11.421Z,1.45
2022-09-22T21:32:39.410Z,1.17
2022-09-22T21:35:08.619Z,1.20
2022-09-22T21:37:36.341Z,1.65
2022-09-22T21:40:04.357Z,1.63
2022-09-22T21:42:32.428Z,1.73
2022-09-22T21:45:01.300Z,1.48
2022-09-22T21:47:31.271Z,1.70
2022-09-22T21:49:59.577Z,1.48
2022-09-22T21:52:27.332Z,1.48
2022-09-22T21:54:56.631Z,1.40
2022-09-22T21:57:24.417Z,1.23
2022-09-22T21:59:54.911Z,1.38
2022-09-22T22:02:24.479Z,1.77
2022-09-22T22:04:55.678Z,1.52
2022-09-22T22:07:23.455Z,1.75
2022-09-22T22:09:51.201Z,1.65
2022-09-22T22:12:19.311Z,1.67
2022-09-22T22:14:47.145Z,1.50
2022-09-22T22:17:15.121Z,1.33
2022-09-22T22:19:42.857Z,1.42
2022-09-22T22:22:11.990Z,1.88
2022-09-22T22:24:42.850Z,1.60
2022-09-22T22:27:11.811Z,1.60
2022-09-22T22:29:39.784Z,1.80
2022-09-22T22:32:10.860Z,1.98
2022-09-22T22:34:39.136Z,1.50
2022-09-22T22:37:09.623Z,2.00
2022-09-22T22:39:39.359Z,1.90
2022-09-22T22:42:07.970Z,1.83
2022-09-22T22:44:35.986Z,1.65
2022-09-22T22:47:04.100Z,2.45
2022-09-22T22:49:32.490Z,2.60
2022-09-22T22:52:00.671Z,2.65
2022-09-22T22:54:28.386Z,2.80
2022-09-22T22:56:57.719Z,2.20
2022-09-22T22:59:25.453Z,2.63
2022-09-22T23:01:53.660Z,2.83
2022-09-22T23:04:22.090Z,2.05
2022-09-22T23:06:49.844Z,2.35
2022-09-22T23:09:18.345Z,2.65
2022-09-22T23:11:46.788Z,2.10
2022-09-22T23:14:16.380Z,2.40
2022-09-22T23:16:46.988Z,2.85
2022-09-22T23:19:17.056Z,2.97
2022-09-22T23:21:46.622Z,2.80
2022-09-22T23:24:16.315Z,2.25
2022-09-22T23:26:46.753Z,2.45
2022-09-22T23:29:16.134Z,3.00
2022-09-22T23:31:43.900Z,3.33
2022-09-22T23:34:12.041Z,3.00
2022-09-22T23:36:40.575Z,3.17
2022-09-22T23:39:08.833Z,2.83
2022-09-22T23:41:37.828Z,2.88
2022-09-22T23:44:06.718Z,3.30
2022-09-22T23:46:37.890Z,2.70
2022-09-22T23:49:06.610Z,3.03
2022-09-22T23:51:34.679Z,3.10
2022-09-22T23:54:02.497Z,3.47
2022-09-22T23:56:30.288Z,3.08
2022-09-22T23:58:58.439Z,3.65
